createdAt,value
2018-03-28T00:02:54.278Z,7.80
2018-03-28T00:07:56.866Z,8.20
2018-03-28T00:12:59.483Z,8.20
2018-03-28T00:18:02.062Z,8.30
2018-03-28T00:23:05.884Z,8.60
2018-03-28T00:28:08.504Z,8.40
2018-03-28T00:33:11.092Z,8.20
2018-03-28T00:38:13.692Z,8.10
2018-03-28T00:43:16.271Z,8.10
2018-03-28T00:48:18.879Z,8.10
2018-03-28T00:53:21.472Z,8.00
2018-03-28T00:58:24.707Z,8.00
2018-03-28T01:03:29.030Z,7.70
2018-03-28T01:08:31.642Z,7.70
2018-03-28T01:13:36.325Z,7.80
2018-03-28T01:18:39.187Z,7.80
2018-03-28T01:23:41.782Z,7.70
2018-03-28T01:28:44.508Z,7.70
2018-03-28T01:33:47.094Z,7.70
2018-03-28T01:38:50.044Z,7.70
2018-03-28T01:43:52.624Z,7.80
2018-03-28T01:48:55.212Z,7.70
2018-03-28T01:59:05.125Z,7.70
2018-03-28T02:04:07.716Z,7.80
2018-03-28T02:09:11.004Z,7.80
2018-03-28T02:14:14.223Z,7.80
2018-03-28T02:19:17.097Z,7.90
2018-03-28T02:24:20.455Z,7.90
2018-03-28T02:29:23.026Z,7.90
2018-03-28T02:34:29.784Z,8.00
2018-03-28T02:39:32.507Z,8.00
2018-03-28T02:44:35.254Z,8.10
2018-03-28T02:49:37.844Z,8.00
2018-03-28T02:54:40.455Z,8.10
2018-03-28T02:59:43.043Z,8.20
2018-03-28T03:04:45.653Z,8.10
2018-03-28T03:09:48.263Z,8.10
2018-03-28T03:14:50.861Z,8.00
2018-03-28T03:19:53.453Z,8.10
2018-03-28T03:24:56.020Z,8.10
2018-03-28T03:29:59.713Z,8.20
2018-03-28T03:35:02.294Z,8.20
2018-03-28T03:40:04.922Z,8.20
2018-03-28T03:45:07.485Z,8.30
2018-03-28T03:50:10.539Z,8.20
2018-03-28T03:55:13.756Z,8.20
2018-03-28T04:00:16.350Z,8.30
2018-03-28T04:05:18.949Z,8.20
2018-03-28T04:10:21.528Z,8.40
2018-03-28T04:15:24.132Z,8.50
2018-03-28T04:20:31.677Z,8.70
2018-03-28T04:25:35.327Z,8.60
2018-03-28T04:30:38.377Z,8.60
2018-03-28T04:35:40.984Z,8.50
2018-03-28T04:40:43.562Z,8.50
2018-03-28T04:45:46.148Z,8.60
2018-03-28T04:50:48.779Z,8.70
2018-03-28T04:55:51.381Z,8.60
2018-03-28T05:00:54.712Z,8.80
2018-03-28T05:05:57.308Z,8.70
2018-03-28T05:11:00.409Z,8.70
2018-03-28T05:16:03.222Z,8.80
2018-03-28T05:21:05.806Z,8.80
2018-03-28T05:26:09.147Z,8.70
2018-03-28T05:31:11.736Z,8.70
2018-03-28T05:36:14.361Z,8.80
2018-03-28T05:41:17.011Z,8.80
2018-03-28T05:46:19.622Z,8.90
2018-03-28T05:51:22.213Z,8.80
2018-03-28T05:56:25.077Z,8.70
2018-03-28T06:01:28.441Z,8.90
2018-03-28T06:06:33.613Z,8.90
2018-03-28T06:11:36.201Z,9.00
2018-03-28T06:16:38.802Z,8.90
2018-03-28T06:21:41.406Z,9.00
2018-03-28T06:26:43.998Z,9.20
2018-03-28T06:31:46.643Z,9.20
2018-03-28T06:36:49.243Z,9.20
2018-03-28T06:41:51.810Z,9.30
2018-03-28T06:46:54.391Z,9.30
2018-03-28T06:51:57.662Z,9.30
2018-03-28T06:57:02.000Z,9.40
2018-03-28T07:02:06.012Z,9.50
2018-03-28T07:07:09.227Z,9.50
2018-03-28T07:12:11.945Z,9.40
2018-03-28T07:17:17.971Z,9.40
2018-03-28T07:22:20.998Z,9.40
2018-03-28T07:27:26.239Z,9.30
2018-03-28T07:32:28.861Z,9.40
2018-03-28T07:37:31.481Z,9.40
2018-03-28T07:42:34.717Z,9.40
2018-03-28T07:47:38.054Z,9.30
2018-03-28T07:52:47.145Z,9.20
2018-03-28T07:57:50.510Z,9.60
2018-03-28T08:02:53.378Z,9.50
2018-03-28T08:07:55.961Z,9.80
2018-03-28T08:12:58.884Z,9.90
2018-03-28T08:18:03.110Z,9.90
2018-03-28T08:23:06.925Z,10.10
2018-03-28T08:28:09.774Z,10.00
2018-03-28T08:33:14.857Z,10.10
2018-03-28T08:38:17.451Z,10.00
2018-03-28T08:43:20.909Z,10.10
2018-03-28T08:48:28.401Z,10.20
2018-03-28T08:53:31.527Z,10.10
2018-03-28T08:58:34.770Z,10.00
2018-03-28T09:03:37.365Z,10.10
2018-03-28T09:08:40.709Z,10.30
2018-03-28T09:13:44.177Z,10.20
2018-03-28T09:18:46.768Z,10.30
2018-03-28T09:23:50.029Z,10.30
2018-03-28T09:28:52.626Z,10.20
2018-03-28T09:33:55.507Z,10.30
2018-03-28T09:38:58.088Z,10.20
2018-03-28T09:44:04.081Z,10.10
2018-03-28T09:49:07.727Z,10.20
2018-03-28T09:54:11.093Z,10.30
2018-03-28T09:59:13.687Z,10.30
2018-03-28T10:04:16.280Z,10.40
2018-03-28T10:09:19.498Z,10.20
2018-03-28T10:14:23.628Z,10.50
2018-03-28T10:19:26.883Z,10.50
2018-03-28T10:24:29.480Z,10.70
2018-03-28T10:29:32.664Z,11.00
2018-03-28T10:34:36.037Z,10.90
2018-03-28T10:39:40.041Z,11.10
2018-03-28T10:44:42.980Z,11.10
2018-03-28T10:49:46.358Z,11.50
2018-03-28T10:54:49.667Z,11.40
2018-03-28T10:59:52.858Z,11.50
2018-03-28T11:04:55.481Z,11.70
2018-03-28T11:09:58.345Z,12.10
2018-03-28T11:15:01.707Z,12.10
2018-03-28T11:20:04.298Z,12.20
2018-03-28T11:25:06.893Z,12.50
2018-03-28T11:30:09.512Z,12.80
2018-03-28T11:35:12.106Z,13.00
2018-03-28T11:40:17.137Z,12.90
2018-03-28T11:45:22.267Z,13.10
2018-03-28T11:50:24.858Z,13.20
2018-03-28T11:55:28.678Z,12.90
2018-03-28T12:00:32.823Z,12.90
2018-03-28T12:05:35.407Z,13.20
2018-03-28T12:10:38.027Z,13.10
2018-03-28T12:15:41.397Z,13.00
2018-03-28T12:20:44.666Z,12.90
2018-03-28T12:25:48.015Z,13.30
2018-03-28T12:30:50.642Z,13.30
2018-03-28T12:35:53.496Z,13.60
2018-03-28T12:40:59.834Z,13.40
2018-03-28T12:46:02.438Z,13.20
2018-03-28T12:51:05.475Z,13.30
2018-03-28T12:56:08.849Z,12.80
2018-03-28T13:01:11.918Z,12.80
2018-03-28T13:06:15.093Z,12.80
2018-03-28T13:11:17.709Z,12.80
2018-03-28T13:16:21.130Z,12.90
2018-03-28T13:21:23.717Z,12.90
2018-03-28T13:26:26.307Z,13.00
2018-03-28T13:31:29.602Z,13.00
2018-03-28T13:36:35.403Z,12.70
2018-03-28T13:41:38.569Z,12.70
2018-03-28T13:46:41.169Z,12.60
2018-03-28T13:51:44.022Z,12.40
2018-03-28T13:56:46.615Z,12.30
2018-03-28T14:01:49.799Z,12.20
2018-03-28T14:06:52.395Z,12.20
2018-03-28T14:11:54.989Z,12.10
2018-03-28T14:16:58.035Z,12.00
2018-03-28T14:22:00.633Z,11.90
2018-03-28T14:27:03.235Z,12.00
2018-03-28T14:32:05.842Z,12.00
2018-03-28T14:37:08.434Z,11.90
2018-03-28T14:42:11.032Z,11.90
2018-03-28T14:47:14.104Z,12.00
2018-03-28T14:52:16.700Z,11.90
2018-03-28T14:57:19.741Z,12.00
2018-03-28T15:02:22.352Z,12.00
2018-03-28T15:07:24.971Z,12.30
2018-03-28T15:12:27.969Z,12.30
2018-03-28T15:17:30.598Z,12.20
2018-03-28T15:22:36.068Z,12.30
2018-03-28T15:27:38.827Z,12.20
2018-03-28T15:32:41.514Z,12.20
2018-03-28T15:37:44.862Z,12.40
2018-03-28T15:42:48.530Z,12.40
2018-03-28T15:47:51.209Z,12.40
2018-03-28T15:52:54.125Z,12.60
2018-03-28T15:57:59.185Z,12.50
2018-03-28T16:03:02.626Z,12.40
2018-03-28T16:08:06.002Z,12.30
2018-03-28T16:13:08.852Z,12.30
2018-03-28T16:18:11.442Z,12.30
2018-03-28T16:23:15.465Z,12.20
2018-03-28T16:28:18.039Z,12.20
2018-03-28T16:33:21.277Z,12.10
2018-03-28T16:38:27.885Z,12.10
2018-03-28T16:43:31.274Z,12.10
2018-03-28T16:48:33.861Z,12.10
2018-03-28T16:53:37.120Z,12.10
2018-03-28T16:58:40.453Z,12.30
2018-03-28T17:03:43.058Z,12.30
2018-03-28T17:08:45.669Z,12.30
2018-03-28T17:13:48.660Z,12.30
2018-03-28T17:18:51.262Z,12.40
2018-03-28T17:23:54.621Z,12.70
2018-03-28T17:28:57.206Z,12.70
2018-03-28T17:34:06.374Z,12.80
2018-03-28T17:39:09.023Z,12.90
2018-03-28T17:44:14.408Z,12.90
2018-03-28T17:49:16.990Z,12.70
2018-03-28T17:54:19.570Z,12.50
2018-03-28T17:59:23.689Z,12.10
2018-03-28T18:04:26.298Z,12.10
2018-03-28T18:09:29.450Z,12.10
2018-03-28T18:14:32.022Z,12.10
2018-03-28T18:19:35.371Z,12.10
2018-03-28T18:24:38.529Z,12.10
2018-03-28T18:29:41.109Z,11.90
2018-03-28T18:34:43.709Z,12.00
2018-03-28T18:39:46.297Z,11.90
2018-03-28T18:44:49.462Z,12.00
2018-03-28T18:49:52.813Z,11.80
2018-03-28T18:54:55.793Z,11.80
2018-03-28T18:59:59.562Z,11.60
2018-03-28T19:05:02.276Z,11.60
2018-03-28T19:10:06.350Z,11.40
2018-03-28T19:15:10.403Z,11.20
2018-03-28T19:20:12.994Z,11.20
2018-03-28T19:25:17.118Z,11.20
2018-03-28T19:30:20.543Z,11.10
2018-03-28T19:35:23.885Z,11.20
2018-03-28T19:40:27.210Z,11.10
2018-03-28T19:45:30.900Z,11.10
2018-03-28T19:50:34.245Z,10.90
2018-03-28T19:55:37.510Z,10.60
2018-03-28T20:00:40.097Z,10.40
2018-03-28T20:05:42.879Z,9.60
2018-03-28T20:10:46.057Z,10.10
2018-03-28T20:15:48.631Z,10.10
2018-03-28T20:20:51.209Z,10.00
2018-03-28T20:25:54.949Z,10.00
2018-03-28T20:30:57.516Z,10.20
2018-03-28T20:36:00.926Z,10.10
2018-03-28T20:41:03.504Z,10.10
2018-03-28T20:46:06.394Z,10.00
2018-03-28T20:51:09.318Z,10.10
2018-03-28T20:56:11.944Z,10.10
2018-03-28T21:01:14.541Z,10.00
2018-03-28T21:06:19.887Z,9.90
2018-03-28T21:11:22.464Z,9.80
2018-03-28T21:16:28.648Z,9.80
2018-03-28T21:21:32.318Z,10.00
2018-03-28T21:26:34.881Z,10.00
2018-03-28T21:31:38.231Z,9.80
2018-03-28T21:36:41.077Z,9.70
2018-03-28T21:41:43.657Z,9.70
2018-03-28T21:46:46.234Z,9.60
2018-03-28T21:51:49.074Z,9.60
2018-03-28T21:56:51.648Z,9.70
2018-03-28T22:01:54.224Z,9.60
2018-03-28T22:06:56.797Z,9.60
2018-03-28T22:12:00.132Z,9.60
2018-03-28T22:17:02.708Z,9.50
2018-03-28T22:22:06.266Z,9.60
2018-03-28T22:27:09.984Z,9.60
2018-03-28T22:32:12.987Z,9.70
2018-03-28T22:37:15.560Z,9.60
2018-03-28T22:42:18.139Z,9.60
2018-03-28T22:47:21.315Z,9.70
2018-03-28T22:52:24.071Z,9.70
2018-03-28T22:57:26.643Z,9.60
2018-03-28T23:02:29.690Z,9.70
2018-03-28T23:07:33.021Z,9.40
2018-03-28T23:12:35.611Z,9.40
2018-03-28T23:17:41.601Z,9.50
2018-03-28T23:22:44.753Z,9.50
2018-03-28T23:27:47.316Z,9.40
2018-03-28T23:32:49.885Z,9.00
2018-03-28T23:37:52.473Z,9.20
2018-03-28T23:42:55.041Z,9.50
2018-03-28T23:47:57.608Z,9.30
2018-03-28T23:53:00.194Z,9.00
2018-03-28T23:58:03.868Z,8.80
